Time;durP1;ratioP1;P1;durP2;ratioP2;P2;SDS_P1;SDS_P2;PMS_P1;PMS_P2;Temp;Humidity;BMP_temperature;BMP_pressure;BME280_temperature;BME280_humidity;BME280_pressure;Samples;Min_cycle;Max_cycle;Signal;HPM_P1;HPM_P2
2024/01/19 00:00:09;;;;;;;24.67;16.85;;;;;;;-2.92;100.00;101350.53;5110449;28;20042;-85
2024/01/19 00:02:35;;;;;;;21.52;16.70;;;;;;;-2.96;100.00;101348.84;5102722;28;20024;-84
2024/01/19 00:05:00;;;;;;;12.95;7.47;;;;;;;-2.87;100.00;101352.16;5105937;28;20099;-85
2024/01/19 00:07:25;;;;;;;22.60;15.90;;;;;;;-2.94;100.00;101347.13;5091905;28;20051;-83
2024/01/19 00:09:54;;;;;;;13.52;7.38;;;;;;;-2.86;100.00;101363.31;5082907;28;20027;-85
2024/01/19 00:12:19;;;;;;;25.60;16.48;;;;;;;-2.90;100.00;101356.50;5094968;28;20048;-85
2024/01/19 00:14:45;;;;;;;23.60;16.48;;;;;;;-2.90;100.00;101365.06;5109402;28;20084;-84
2024/01/19 00:17:10;;;;;;;24.05;16.45;;;;;;;-2.88;100.00;101352.19;5108188;28;20112;-84
2024/01/19 00:19:35;;;;;;;12.85;6.80;;;;;;;-2.80;100.00;101359.81;5089166;28;20031;-84
2024/01/19 00:22:01;;;;;;;12.00;7.00;;;;;;;-2.78;100.00;101358.97;5090754;28;20501;-83
2024/01/19 00:24:26;;;;;;;14.45;6.95;;;;;;;-2.76;100.00;101359.81;5106509;28;20026;-84
2024/01/19 00:26:55;;;;;;;21.15;15.32;;;;;;;-2.83;100.00;101371.00;5105344;28;20028;-84
2024/01/19 00:29:20;;;;;;;24.67;15.65;;;;;;;-2.84;100.00;101364.16;5101662;28;20609;-84
2024/01/19 00:31:47;;;;;;;20.52;15.88;;;;;;;-2.87;100.00;101359.91;5105908;28;20122;-84
2024/01/19 00:34:13;;;;;;;23.27;15.88;;;;;;;-2.89;100.00;101364.22;5108552;28;20483;-84
2024/01/19 00:36:39;;;;;;;19.60;15.27;;;;;;;-2.89;100.00;101373.66;5108549;28;20452;-84
2024/01/19 00:39:05;;;;;;;17.00;7.07;;;;;;;-2.81;100.00;101369.28;5109145;28;20073;-84
2024/01/19 00:41:30;;;;;;;25.23;15.95;;;;;;;-2.95;100.00;101377.16;5075479;28;20380;-84
2024/01/19 00:43:57;;;;;;;22.08;15.15;;;;;;;-2.96;100.00;101379.75;5070694;28;20027;-84
2024/01/19 00:46:22;;;;;;;25.05;15.52;;;;;;;-3.01;100.00;101381.50;5096775;28;20383;-84
2024/01/19 00:48:48;;;;;;;25.30;15.73;;;;;;;-3.06;100.00;101376.41;5100745;28;20116;-84
2024/01/19 00:51:14;;;;;;;22.35;15.48;;;;;;;-3.05;100.00;101380.69;5095539;28;20423;-84
2024/01/19 00:53:39;;;;;;;14.18;6.22;;;;;;;-2.95;100.00;101389.16;5079359;28;20041;-84
2024/01/19 00:56:06;;;;;;;15.65;6.68;;;;;;;-2.97;100.00;101385.75;5109054;28;20019;-84
2024/01/19 00:58:32;;;;;;;20.90;15.23;;;;;;;-3.10;100.00;101385.03;5108916;28;20030;-84
2024/01/19 01:00:57;;;;;;;19.67;14.55;;;;;;;-3.11;100.00;101379.91;5110143;28;20027;-84
2024/01/19 01:03:24;;;;;;;19.75;15.73;;;;;;;-3.17;100.00;101376.50;5105257;28;20085;-86
2024/01/19 01:05:56;;;;;;;18.35;13.20;;;;;;;-3.16;100.00;101378.22;5096455;28;20028;-84
2024/01/19 01:08:25;;;;;;;20.33;14.55;;;;;;;-3.17;100.00;101385.97;5094399;28;20121;-84
2024/01/19 01:10:50;;;;;;;26.13;14.18;;;;;;;-3.23;100.00;101375.69;5108670;28;20093;-84
2024/01/19 01:13:17;;;;;;;17.33;13.32;;;;;;;-3.21;100.00;101369.66;5097311;28;20028;-84
2024/01/19 01:15:42;;;;;;;9.32;5.70;;;;;;;-3.08;100.00;101382.44;5083632;28;20020;-84
2024/01/19 01:18:08;;;;;;;9.98;5.82;;;;;;;-3.05;100.00;101380.69;5083283;28;20035;-84
2024/01/19 01:20:33;;;;;;;11.73;5.22;;;;;;;-3.02;100.00;101382.38;5101808;28;20015;-84
2024/01/19 01:22:58;;;;;;;10.68;5.28;;;;;;;-3.02;100.00;101384.94;5100106;28;20123;-85
2024/01/19 01:25:24;;;;;;;12.60;6.57;;;;;;;-3.01;100.00;101386.66;5094066;28;20067;-84
2024/01/19 01:27:49;;;;;;;16.80;11.75;;;;;;;-3.11;100.00;101393.63;5106571;28;20038;-84
2024/01/19 01:30:15;;;;;;;7.88;5.13;;;;;;;-3.03;100.00;101398.69;5109046;28;20028;-84
2024/01/19 01:32:40;;;;;;;8.65;4.80;;;;;;;-3.00;100.00;101398.66;5108546;28;20447;-84
2024/01/19 01:35:06;;;;;;;17.83;11.73;;;;;;;-3.16;100.00;101398.81;5097269;28;20102;-85
2024/01/19 01:37:31;;;;;;;20.73;11.73;;;;;;;-3.23;100.00;101404.00;5106723;28;20027;-84
2024/01/19 01:39:56;;;;;;;12.40;5.32;;;;;;;-3.07;100.00;101407.31;5106083;28;20460;-84
2024/01/19 01:42:22;;;;;;;9.85;5.13;;;;;;;-3.06;100.00;101402.16;5084323;28;20073;-84
2024/01/19 01:44:50;;;;;;;9.38;4.72;;;;;;;-3.06;100.00;101414.16;5088652;28;20034;-84
2024/01/19 01:47:16;;;;;;;13.93;10.30;;;;;;;-3.28;100.00;101416.91;5085755;28;20034;-84
2024/01/19 01:49:41;;;;;;;14.13;10.43;;;;;;;-3.30;100.00;101405.78;5106673;28;20027;-84
2024/01/19 01:52:08;;;;;;;15.18;10.93;;;;;;;-3.25;100.00;101403.16;5077222;28;20044;-84
2024/01/19 01:54:34;;;;;;;15.18;11.15;;;;;;;-3.30;100.00;101416.06;5088704;28;20020;-84
2024/01/19 01:57:00;;;;;;;18.75;11.45;;;;;;;-3.32;100.00;101415.22;5104480;28;20134;-84
2024/01/19 01:59:26;;;;;;;17.10;11.30;;;;;;;-3.38;100.00;101425.56;5095258;28;20093;-84
2024/01/19 02:01:55;;;;;;;14.65;10.23;;;;;;;-3.42;100.00;101436.75;5085324;28;20028;-85
2024/01/19 02:04:21;;;;;;;18.40;11.25;;;;;;;-3.44;100.00;101432.47;5096560;28;20070;-84
2024/01/19 02:06:50;;;;;;;12.05;10.43;;;;;;;-3.48;100.00;101436.78;5097872;28;20027;-85
2024/01/19 02:09:16;;;;;;;13.75;10.43;;;;;;;-3.47;100.00;101428.22;5095774;28;20429;-85
2024/01/19 02:11:41;;;;;;;16.25;11.52;;;;;;;-3.47;100.00;101435.91;5108773;28;20089;-84
2024/01/19 02:14:09;;;;;;;11.50;5.20;;;;;;;-3.37;100.00;101444.41;5083152;28;20346;-85
2024/01/19 02:16:35;;;;;;;10.77;5.78;;;;;;;-3.35;100.00;101450.41;5103219;28;20023;-85
2024/01/19 02:19:00;;;;;;;13.88;10.40;;;;;;;-3.55;100.00;101450.56;5102277;28;20098;-85
2024/01/19 02:21:25;;;;;;;11.45;5.15;;;;;;;-3.42;100.00;101457.31;5079310;28;20036;-85
2024/01/19 02:24:01;;;;;;;10.52;4.95;;;;;;;-3.42;100.00;101457.31;5104586;28;20039;-84
2024/01/19 02:26:28;;;;;;;8.75;4.15;;;;;;;-3.43;100.00;101455.63;5094323;28;20495;-85
2024/01/19 02:28:54;;;;;;;13.05;9.23;;;;;;;-3.56;100.00;101454.84;5111385;28;20030;-84
2024/01/19 02:31:19;;;;;;;14.10;9.27;;;;;;;-3.57;100.00;101457.44;5108173;28;20024;-85
2024/01/19 02:33:44;;;;;;;11.68;8.40;;;;;;;-3.63;100.00;101462.56;5101448;28;20020;-85
2024/01/19 02:36:10;;;;;;;10.88;8.05;;;;;;;-3.62;100.00;101464.28;5107638;28;20643;-84
2024/01/19 02:38:35;;;;;;;7.30;3.40;;;;;;;-3.50;100.00;101479.66;5094406;28;20048;-85
2024/01/19 02:41:00;;;;;;;6.35;3.08;;;;;;;-3.49;100.00;101478.81;5094356;28;20016;-85
2024/01/19 02:43:26;;;;;;;6.07;2.95;;;;;;;-3.48;100.00;101478.78;5112801;28;20027;-85
2024/01/19 02:45:54;;;;;;;7.25;2.97;;;;;;;-3.45;100.00;101482.22;5092889;28;20035;-85
2024/01/19 02:48:19;;;;;;;10.38;5.78;;;;;;;-3.39;100.00;101483.03;5112074;28;20019;-85
2024/01/19 02:50:45;;;;;;;4.10;2.58;;;;;;;-3.33;100.00;101485.53;5112547;28;20076;-84
2024/01/19 02:53:10;;;;;;;6.13;2.50;;;;;;;-3.27;100.00;101485.50;5095602;28;20031;-85
2024/01/19 02:55:36;;;;;;;10.43;7.40;;;;;;;-3.12;100.00;101486.28;5093105;28;20103;-85
2024/01/19 02:58:01;;;;;;;10.57;3.42;;;;;;;-3.12;100.00;101487.13;5074454;28;20368;-84
2024/01/19 03:00:27;;;;;;;5.40;2.90;;;;;;;-3.06;100.00;101492.22;5092106;28;20027;-84
2024/01/19 03:02:52;;;;;;;11.88;8.88;;;;;;;-3.02;100.00;101495.63;5103487;28;20020;-84
2024/01/19 03:05:17;;;;;;;15.77;10.95;;;;;;;-2.90;100.00;101498.09;5102262;28;20498;-85
2024/01/19 03:07:43;;;;;;;17.88;11.57;;;;;;;-2.86;100.00;101492.03;5102838;28;20052;-84
2024/01/19 03:10:08;;;;;;;7.15;3.75;;;;;;;-2.85;100.00;101496.31;5110869;28;20511;-85
2024/01/19 03:12:33;;;;;;;15.30;12.25;;;;;;;-2.84;100.00;101490.31;5110355;28;20054;-84
2024/01/19 03:14:59;;;;;;;15.63;11.48;;;;;;;-2.86;100.00;101504.91;5108953;28;20028;-84
2024/01/19 03:17:26;;;;;;;15.55;12.68;;;;;;;-2.81;100.00;101502.31;5103916;28;20031;-84
2024/01/19 03:19:51;;;;;;;19.65;14.65;;;;;;;-2.77;100.00;101499.72;5095435;28;20170;-84
2024/01/19 03:22:17;;;;;;;22.58;14.68;;;;;;;-2.78;100.00;101504.88;5078973;28;20122;-83
2024/01/19 03:24:42;;;;;;;8.65;4.90;;;;;;;-2.75;100.00;101508.28;5095172;28;20418;-83
2024/01/19 03:27:07;;;;;;;8.23;5.53;;;;;;;-2.73;100.00;101514.28;5105301;28;20068;-84
2024/01/19 03:29:33;;;;;;;17.73;15.65;;;;;;;-2.68;100.00;101514.22;5111458;28;20151;-84
2024/01/19 03:31:59;;;;;;;10.98;5.32;;;;;;;-2.66;100.00;101504.75;5093777;28;20027;-84
2024/01/19 03:34:25;;;;;;;20.48;15.88;;;;;;;-2.68;100.00;101509.94;5111638;28;20042;-84
2024/01/19 03:36:54;;;;;;;10.30;6.05;;;;;;;-2.64;100.00;101509.03;5112281;28;20110;-84
2024/01/19 03:39:19;;;;;;;7.75;5.38;;;;;;;-2.63;100.00;101508.16;5111733;28;20024;-84
2024/01/19 03:41:44;;;;;;;9.93;5.35;;;;;;;-2.62;100.00;101509.88;5110339;28;20032;-83
2024/01/19 03:44:10;;;;;;;23.70;16.85;;;;;;;-2.66;100.00;101508.19;5096880;28;20468;-84
2024/01/19 03:46:35;;;;;;;11.05;6.38;;;;;;;-2.61;100.00;101513.28;5096354;28;20608;-84
2024/01/19 03:49:00;;;;;;;23.67;17.10;;;;;;;-2.66;100.00;101507.34;5092237;28;20030;-85
2024/01/19 03:51:26;;;;;;;20.80;17.70;;;;;;;-2.65;100.00;101514.19;5111751;28;20076;-85
2024/01/19 03:53:54;;;;;;;22.98;18.02;;;;;;;-2.64;100.00;101519.34;5099979;28;20080;-84
2024/01/19 03:56:19;;;;;;;24.45;18.15;;;;;;;-2.60;100.00;101523.59;5107861;28;20020;-85
2024/01/19 03:58:44;;;;;;;24.38;19.63;;;;;;;-2.60;100.00;101515.84;5100026;28;20035;-85
2024/01/19 04:01:10;;;;;;;23.45;19.20;;;;;;;-2.60;100.00;101515.84;5091035;28;20034;-84
2024/01/19 04:03:36;;;;;;;21.45;18.10;;;;;;;-2.62;100.00;101521.91;5095955;28;20106;-85
2024/01/19 04:06:02;;;;;;;20.15;7.80;;;;;;;-2.56;100.00;101521.84;5109082;28;20053;-85
2024/01/19 04:08:28;;;;;;;20.35;17.63;;;;;;;-2.61;100.00;101516.72;5105122;28;20023;-85
2024/01/19 04:10:53;;;;;;;26.48;18.85;;;;;;;-2.63;100.00;101520.19;5091209;28;20044;-84
2024/01/19 04:13:18;;;;;;;22.13;18.90;;;;;;;-2.63;100.00;101522.75;5091607;28;20050;-85
2024/01/19 04:15:44;;;;;;;26.73;19.10;;;;;;;-2.64;100.00;101531.34;5108051;28;20104;-85
2024/01/19 04:18:10;;;;;;;11.50;7.15;;;;;;;-2.57;100.00;101536.44;5096454;28;20417;-85
2024/01/19 04:20:35;;;;;;;15.48;8.30;;;;;;;-2.56;100.00;101540.72;5098674;28;20035;-85
2024/01/19 04:23:01;;;;;;;24.13;18.90;;;;;;;-2.65;100.00;101539.94;5096396;28;20032;-84
2024/01/19 04:25:26;;;;;;;23.95;19.27;;;;;;;-2.66;100.00;101546.81;5097917;28;20020;-85
2024/01/19 04:27:52;;;;;;;15.18;7.43;;;;;;;-2.59;100.00;101550.19;5107501;28;20047;-85
2024/01/19 04:30:17;;;;;;;10.10;7.38;;;;;;;-2.59;100.00;101556.19;5093541;28;20051;-85
2024/01/19 04:32:43;;;;;;;13.55;7.30;;;;;;;-2.58;100.00;101550.19;5090823;28;20376;-85
2024/01/19 04:35:08;;;;;;;23.80;18.70;;;;;;;-2.68;100.00;101560.59;5075299;28;20028;-84
2024/01/19 04:37:33;;;;;;;22.60;19.45;;;;;;;-2.69;100.00;101554.59;5099549;28;20065;-85
2024/01/19 04:39:59;;;;;;;20.27;18.05;;;;;;;-2.70;100.00;101557.16;5108854;28;20072;-85
2024/01/19 04:42:24;;;;;;;20.98;18.67;;;;;;;-2.74;100.00;101553.75;5095926;28;20024;-85
2024/01/19 04:44:50;;;;;;;24.17;18.73;;;;;;;-2.77;100.00;101564.09;5090472;28;20028;-85
2024/01/19 04:47:16;;;;;;;22.52;18.65;;;;;;;-2.76;100.00;101570.94;5083888;28;20114;-85
2024/01/19 04:49:41;;;;;;;25.30;19.23;;;;;;;-2.75;100.00;101576.97;5111127;28;20103;-85
2024/01/19 04:52:06;;;;;;;21.00;18.40;;;;;;;-2.77;100.00;101584.69;5087550;28;20023;-85
2024/01/19 04:54:32;;;;;;;23.67;19.48;;;;;;;-2.81;100.00;101588.13;5101821;28;20019;-84
2024/01/19 04:56:57;;;;;;;21.92;18.92;;;;;;;-2.80;100.00;101587.28;5092735;28;20065;-85
2024/01/19 04:59:22;;;;;;;23.42;18.85;;;;;;;-2.79;100.00;101591.56;5092838;28;20504;-85
2024/01/19 05:01:48;;;;;;;24.80;19.77;;;;;;;-2.81;100.00;101595.00;5105579;28;20551;-85
2024/01/19 05:04:13;;;;;;;13.02;8.00;;;;;;;-2.75;100.00;101590.69;5111813;28;20075;-85
2024/01/19 05:06:39;;;;;;;10.63;6.53;;;;;;;-2.73;100.00;101594.09;5091766;28;20058;-85
2024/01/19 05:09:05;;;;;;;14.98;7.88;;;;;;;-2.75;100.00;101585.53;5108407;28;20399;-85
2024/01/19 05:11:30;;;;;;;22.85;18.95;;;;;;;-2.82;100.00;101594.13;5082338;28;20033;-85
2024/01/19 05:13:56;;;;;;;23.67;19.52;;;;;;;-2.84;100.00;101595.88;5058733;28;20028;-85
2024/01/19 05:16:21;;;;;;;23.52;19.80;;;;;;;-2.85;100.00;101597.59;5067275;28;20025;-85
2024/01/19 05:18:47;;;;;;;23.17;20.00;;;;;;;-2.85;100.00;101599.31;5059222;28;20504;-85
2024/01/19 05:21:12;;;;;;;23.13;20.05;;;;;;;-2.84;100.00;101606.16;5063982;28;20040;-86
2024/01/19 05:23:37;;;;;;;25.20;20.40;;;;;;;-2.90;100.00;101606.22;5058755;28;20099;-83
2024/01/19 05:26:06;;;;;;;24.40;20.52;;;;;;;-2.90;100.00;101606.22;5047948;28;20070;-83
2024/01/19 05:28:33;;;;;;;24.52;20.35;;;;;;;-2.91;100.00;101609.66;5054464;28;20090;-83
2024/01/19 05:30:59;;;;;;;23.30;19.92;;;;;;;-2.94;100.00;101619.97;5054369;28;20023;-83
2024/01/19 05:33:24;;;;;;;22.90;20.50;;;;;;;-2.95;100.00;101619.13;5057808;28;20021;-83
2024/01/19 05:35:50;;;;;;;16.77;9.50;;;;;;;-2.88;100.00;101625.09;5058474;28;20120;-83
2024/01/19 05:38:15;;;;;;;27.85;20.13;;;;;;;-2.95;100.00;101633.72;5063636;28;20394;-84
2024/01/19 05:40:41;;;;;;;25.23;20.52;;;;;;;-2.97;100.00;101640.59;5049438;28;20056;-84
2024/01/19 05:43:06;;;;;;;22.23;19.70;;;;;;;-3.01;100.00;101641.47;5059185;28;20063;-84
2024/01/19 05:45:32;;;;;;;23.67;19.88;;;;;;;-3.02;100.00;101647.50;5061505;28;20029;-84
2024/01/19 05:47:57;;;;;;;22.27;19.38;;;;;;;-3.02;100.00;101657.78;5061365;28;20404;-84
2024/01/19 05:50:22;;;;;;;25.55;20.52;;;;;;;-3.02;100.00;101662.94;5059318;28;20028;-83
2024/01/19 05:52:48;;;;;;;13.20;8.23;;;;;;;-2.95;100.00;101662.88;5063963;28;20032;-84
2024/01/19 05:55:13;;;;;;;13.65;8.20;;;;;;;-2.95;100.00;101674.91;5055828;28;20435;-84
2024/01/19 05:57:38;;;;;;;16.45;8.63;;;;;;;-2.93;100.00;101680.91;5062242;28;20025;-85
2024/01/19 06:00:05;;;;;;;19.02;7.90;;;;;;;-2.91;100.00;101686.88;5065154;28;20513;-84
2024/01/19 06:02:30;;;;;;;17.85;9.32;;;;;;;-2.90;100.00;101693.75;5064052;28;20115;-84
2024/01/19 06:04:55;;;;;;;15.35;8.35;;;;;;;-2.88;100.00;101689.44;5061739;28;20155;-85
2024/01/19 06:07:22;;;;;;;22.45;18.55;;;;;;;-2.92;100.00;101701.47;5072131;28;20067;-84
2024/01/19 06:09:47;;;;;;;15.55;8.32;;;;;;;-2.84;100.00;101693.72;5063053;28;20489;-84
2024/01/19 06:12:14;;;;;;;26.27;19.75;;;;;;;-2.89;100.00;101714.34;5074733;28;20050;-84
2024/01/19 06:14:39;;;;;;;22.13;19.92;;;;;;;-2.86;100.00;101723.75;5080450;28;20487;-84
2024/01/19 06:17:04;;;;;;;23.23;19.58;;;;;;;-2.86;100.00;101721.19;5087877;28;20028;-84
2024/01/19 06:19:30;;;;;;;13.70;8.43;;;;;;;-2.74;100.00;101717.72;5089388;28;20052;-84
2024/01/19 06:21:55;;;;;;;12.82;8.43;;;;;;;-2.73;100.00;101712.56;5078269;28;20451;-84
2024/01/19 06:24:20;;;;;;;11.82;7.72;;;;;;;-2.68;100.00;101723.69;5084948;28;20110;-83
2024/01/19 06:26:50;;;;;;;11.65;7.70;;;;;;;-2.65;100.00;101744.28;5077140;28;20131;-84
2024/01/19 06:29:16;;;;;;;21.50;18.55;;;;;;;-2.72;100.00;101740.03;5080690;28;20027;-84
2024/01/19 06:31:45;;;;;;;25.20;19.55;;;;;;;-2.72;100.00;101745.19;5086767;28;20020;-84
2024/01/19 06:34:11;;;;;;;24.35;19.80;;;;;;;-2.72;100.00;101734.88;5076079;28;20021;-85
2024/01/19 06:36:37;;;;;;;12.73;8.82;;;;;;;-2.64;100.00;101745.13;5066052;28;20387;-85
2024/01/19 06:39:04;;;;;;;20.27;18.10;;;;;;;-2.75;100.00;101758.06;5085017;28;20016;-84
2024/01/19 06:41:30;;;;;;;23.55;18.38;;;;;;;-2.78;100.00;101755.50;5087129;28;20034;-84
2024/01/19 06:43:56;;;;;;;23.00;18.38;;;;;;;-2.81;100.00;101768.38;5086854;28;20012;-84
2024/01/19 06:46:21;;;;;;;23.73;18.08;;;;;;;-2.81;100.00;101780.38;5085631;28;20039;-84
2024/01/19 06:48:47;;;;;;;20.38;17.55;;;;;;;-2.85;100.00;101767.53;5086533;28;20685;-84
2024/01/19 06:51:16;;;;;;;19.70;17.60;;;;;;;-2.86;100.00;101764.97;5082339;28;20075;-84
2024/01/19 06:53:41;;;;;;;22.05;18.27;;;;;;;-2.87;100.00;101763.25;5083744;28;20024;-84
2024/01/19 06:56:10;;;;;;;20.98;17.52;;;;;;;-2.90;100.00;101771.00;5086802;28;20031;-84
2024/01/19 06:58:36;;;;;;;22.15;17.27;;;;;;;-2.93;100.00;101776.16;5081365;28;20117;-84
2024/01/19 07:01:01;;;;;;;20.33;16.48;;;;;;;-2.99;100.00;101771.03;5094433;28;20028;-83
2024/01/19 07:03:27;;;;;;;20.02;16.90;;;;;;;-3.01;100.00;101783.91;5090550;28;20324;-84
2024/01/19 07:05:52;;;;;;;19.15;16.17;;;;;;;-3.01;100.00;101793.34;5077393;28;20031;-83
2024/01/19 07:08:17;;;;;;;19.20;16.35;;;;;;;-3.01;100.00;101793.34;5093198;28;20038;-84
2024/01/19 07:10:42;;;;;;;21.73;16.83;;;;;;;-3.03;100.00;101795.91;5082564;28;20061;-85
2024/01/19 07:13:08;;;;;;;22.95;17.33;;;;;;;-3.04;100.00;101790.78;5098377;28;20047;-84
2024/01/19 07:15:33;;;;;;;22.10;17.88;;;;;;;-3.01;100.00;101801.06;5108501;27;21148;-85
2024/01/19 07:17:59;;;;;;;20.00;17.40;;;;;;;-3.06;100.00;101811.38;5111218;27;20402;-85
2024/01/19 07:20:24;;;;;;;18.60;16.58;;;;;;;-3.10;100.00;101813.97;5101412;28;20032;-86
2024/01/19 07:22:53;;;;;;;21.98;17.17;;;;;;;-3.11;100.00;101825.13;5104321;28;20086;-85
2024/01/19 07:25:19;;;;;;;22.73;16.98;;;;;;;-3.17;100.00;101826.84;5109306;28;20019;-85
2024/01/19 07:27:44;;;;;;;15.27;8.85;;;;;;;-3.05;100.00;101827.69;5089586;28;20492;-85
2024/01/19 07:30:10;;;;;;;20.77;16.35;;;;;;;-3.20;100.00;101828.56;5112495;28;20054;-85
2024/01/19 07:32:35;;;;;;;14.98;8.15;;;;;;;-3.07;100.00;101824.25;5089187;28;20051;-85
2024/01/19 07:35:01;;;;;;;22.95;16.98;;;;;;;-3.24;100.00;101822.53;5086686;28;20102;-85
2024/01/19 07:37:26;;;;;;;15.30;8.38;;;;;;;-3.10;100.00;101827.69;5091784;28;20015;-86
2024/01/19 07:39:51;;;;;;;13.68;7.68;;;;;;;-3.12;100.00;101833.69;5110065;28;20050;-85
2024/01/19 07:42:17;;;;;;;19.85;16.80;;;;;;;-3.27;100.00;101822.56;5093122;28;20051;-87
2024/01/19 07:44:42;;;;;;;24.10;17.65;;;;;;;-3.29;100.00;101834.56;5110206;28;20028;-84
2024/01/19 07:47:07;;;;;;;20.35;16.77;;;;;;;-3.29;100.00;101839.72;5087663;28;20163;-85
2024/01/19 07:49:33;;;;;;;21.52;17.20;;;;;;;-3.27;100.00;101848.28;5092855;28;20072;-86
2024/01/19 07:51:58;;;;;;;21.10;17.65;;;;;;;-3.28;100.00;101851.72;5111474;28;20054;-86
2024/01/19 07:54:23;;;;;;;23.23;17.95;;;;;;;-3.24;100.00;101852.56;5106946;28;20103;-84
2024/01/19 07:56:49;;;;;;;23.95;18.75;;;;;;;-3.24;100.00;101857.72;5103030;28;20061;-86
2024/01/19 07:59:14;;;;;;;21.23;18.10;;;;;;;-3.22;100.00;101864.56;5095750;28;20044;-85
2024/01/19 08:01:40;;;;;;;29.45;19.77;;;;;;;-3.20;100.00;101862.88;5109267;28;20023;-84
2024/01/19 08:04:05;;;;;;;27.75;19.70;;;;;;;-3.21;100.00;101862.84;5111085;28;20023;-86
2024/01/19 08:06:31;;;;;;;12.73;7.78;;;;;;;-3.09;100.00;101874.88;5098904;28;20024;-86
2024/01/19 08:08:56;;;;;;;13.55;6.82;;;;;;;-3.08;100.00;101874.00;5102808;28;20046;-86
2024/01/19 08:11:21;;;;;;;16.40;8.20;;;;;;;-3.06;100.00;101882.59;5110961;28;20671;-85
2024/01/19 08:13:47;;;;;;;24.08;18.17;;;;;;;-3.16;100.00;101880.03;5112090;28;20595;-85
2024/01/19 08:16:13;;;;;;;20.55;8.82;;;;;;;-3.08;100.00;101889.47;5096713;28;20384;-85
2024/01/19 08:18:38;;;;;;;22.85;17.42;;;;;;;-3.18;100.00;101894.63;5074226;28;20023;-85
2024/01/19 08:21:04;;;;;;;23.98;18.40;;;;;;;-3.20;100.00;101895.47;5110293;28;20108;-85
2024/01/19 08:23:30;;;;;;;12.80;8.43;;;;;;;-3.07;100.00;101901.47;5110795;28;20095;-85
2024/01/19 08:25:56;;;;;;;14.77;8.50;;;;;;;-3.04;100.00;101911.75;5102368;28;20031;-85
2024/01/19 08:28:22;;;;;;;22.40;17.15;;;;;;;-3.09;100.00;101903.19;5109303;28;20022;-85
2024/01/19 08:30:50;;;;;;;20.70;17.45;;;;;;;-3.12;100.00;101903.19;5106578;28;20126;-85
2024/01/19 08:33:15;;;;;;;20.35;18.00;;;;;;;-3.06;100.00;101904.03;5110417;28;20483;-85
2024/01/19 08:35:42;;;;;;;14.30;8.25;;;;;;;-2.99;100.00;101910.03;5108378;28;20034;-85
2024/01/19 08:38:13;;;;;;;15.88;7.88;;;;;;;-2.99;100.00;101903.16;5107109;28;20016;-85
2024/01/19 08:40:38;;;;;;;11.82;7.10;;;;;;;-2.95;100.00;101912.59;5104028;28;20088;-85
2024/01/19 08:43:03;;;;;;;16.50;8.38;;;;;;;-2.95;100.00;101910.03;5109288;28;20019;-83
2024/01/19 08:45:29;;;;;;;19.02;16.73;;;;;;;-2.98;100.00;101906.59;5089986;28;20072;-85
2024/01/19 08:47:57;;;;;;;21.10;17.27;;;;;;;-2.97;100.00;101911.75;5106437;28;20027;-84
2024/01/19 08:50:23;;;;;;;17.55;8.50;;;;;;;-2.87;100.00;101923.75;5100100;28;20080;-84
2024/01/19 08:52:48;;;;;;;13.45;7.00;;;;;;;-2.84;100.00;101921.16;5084323;28;20027;-84
2024/01/19 08:55:14;;;;;;;18.40;16.10;;;;;;;-2.84;100.00;101925.44;5102620;28;20039;-85
2024/01/19 08:57:39;;;;;;;20.20;16.73;;;;;;;-2.80;100.00;101924.63;5099734;28;20016;-84
2024/01/19 09:00:07;;;;;;;24.50;16.92;;;;;;;-2.77;100.00;101922.03;5106801;28;20019;-84
2024/01/19 09:02:32;;;;;;;19.90;16.50;;;;;;;-2.73;100.00;101928.88;5095641;28;20059;-84
2024/01/19 09:04:58;;;;;;;20.63;16.15;;;;;;;-2.67;100.00;101935.75;5077443;28;20051;-84
2024/01/19 09:07:23;;;;;;;21.30;16.27;;;;;;;-2.59;100.00;101941.72;5104874;28;20028;-84
2024/01/19 09:09:48;;;;;;;21.02;14.98;;;;;;;-2.61;100.00;101948.59;5102264;28;20030;-84
2024/01/19 09:12:14;;;;;;;20.67;15.52;;;;;;;-2.54;100.00;101950.31;5108465;28;20043;-85
2024/01/19 09:14:39;;;;;;;18.60;15.68;;;;;;;-2.48;100.00;101955.44;5094843;28;20067;-85
2024/01/19 09:17:05;;;;;;;18.92;15.95;;;;;;;-2.41;100.00;101958.84;5092873;28;20035;-84
2024/01/19 09:19:30;;;;;;;19.85;14.77;;;;;;;-2.38;100.00;101962.31;5109705;28;20031;-84
2024/01/19 09:21:55;;;;;;;19.13;15.13;;;;;;;-2.34;100.00;101968.31;5107516;28;20071;-84
2024/01/19 09:24:21;;;;;;;10.43;7.10;;;;;;;-2.26;100.00;101967.41;5105974;28;20055;-84
2024/01/19 09:26:46;;;;;;;19.35;15.27;;;;;;;-2.25;100.00;101973.41;5103019;28;20107;-83
2024/01/19 09:29:11;;;;;;;12.75;6.90;;;;;;;-2.14;100.00;101979.38;5087076;28;20030;-84
2024/01/19 09:31:43;;;;;;;18.20;16.27;;;;;;;-2.11;100.00;101981.97;5097650;28;20027;-84
2024/01/19 09:34:09;;;;;;;18.80;16.00;;;;;;;-2.01;100.00;101986.22;5109681;28;20019;-84
2024/01/19 09:36:35;;;;;;;19.35;16.00;;;;;;;-1.96;100.00;101986.22;5103373;28;20036;-84
2024/01/19 09:39:00;;;;;;;18.95;16.60;;;;;;;-1.88;100.00;101988.75;5101046;28;20023;-83
2024/01/19 09:41:39;;;;;;;14.55;7.88;;;;;;;-1.80;100.00;101994.72;5099695;28;20111;-84
2024/01/19 09:44:09;;;;;;;19.50;16.77;;;;;;;-1.79;100.00;101992.16;5087964;28;20030;-85
2024/01/19 09:46:50;;;;;;;22.38;17.38;;;;;;;-1.71;100.00;102007.59;5101271;28;20475;-85
2024/01/19 09:49:59;;;;;;;20.60;16.95;;;;;;;-1.65;100.00;101994.66;5093047;28;20020;-84
2024/01/19 09:52:50;;;;;;;19.17;16.85;;;;;;;-1.58;100.00;101999.78;5105445;28;20368;-84
2024/01/19 09:55:19;;;;;;;13.02;8.02;;;;;;;-1.52;100.00;102004.06;5100561;27;20110;-84
2024/01/19 09:57:46;;;;;;;12.30;7.80;;;;;;;-1.47;100.00;102012.63;5108711;28;20027;-84
2024/01/19 10:00:13;;;;;;;19.08;16.58;;;;;;;-1.47;100.00;102017.78;5107592;28;20913;-84
2024/01/19 10:02:43;;;;;;;23.70;16.65;;;;;;;-1.39;100.00;102023.75;5106837;28;20031;-84
2024/01/19 10:05:12;;;;;;;18.20;15.82;;;;;;;-1.38;100.00;102027.19;5103034;28;20395;-85
2024/01/19 10:07:41;;;;;;;25.42;17.70;;;;;;;-1.29;100.00;102028.00;5104099;28;20050;-85
2024/01/19 10:10:08;;;;;;;19.60;16.05;;;;;;;-1.27;100.00;102034.00;5107005;28;20020;-85
2024/01/19 10:12:34;;;;;;;25.35;16.45;;;;;;;-1.21;100.00;102035.69;5103078;28;20192;-85
2024/01/19 10:15:00;;;;;;;19.75;16.05;;;;;;;-1.17;100.00;102026.22;5098670;28;20024;-85
2024/01/19 10:17:26;;;;;;;19.63;16.60;;;;;;;-1.12;100.00;102024.47;5108695;28;20022;-84
2024/01/19 10:19:52;;;;;;;23.67;16.55;;;;;;;-1.08;100.00;102026.16;5108107;28;20027;-84
2024/01/19 10:22:28;;;;;;;21.73;15.98;;;;;;;-0.98;100.00;102035.53;5103164;28;20042;-84
2024/01/19 10:25:04;;;;;;;22.42;17.00;;;;;;;-0.93;100.00;102035.50;5109410;28;20019;-84
2024/01/19 10:27:51;;;;;;;20.55;15.77;;;;;;;-0.88;100.00;102038.91;5108540;28;20028;-84
2024/01/19 10:30:29;;;;;;;20.15;14.88;;;;;;;-0.80;100.00;102038.00;5106745;28;20050;-84
2024/01/19 10:33:06;;;;;;;21.90;15.38;;;;;;;-0.79;100.00;102029.38;5108567;28;20055;-83
2024/01/19 10:35:32;;;;;;;19.65;14.80;;;;;;;-0.72;100.00;102031.03;5103249;28;20020;-84
2024/01/19 10:38:05;;;;;;;19.33;14.18;;;;;;;-0.68;100.00;102045.66;5108713;28;20080;-84
2024/01/19 10:40:35;;;;;;;17.00;14.63;;;;;;;-0.58;100.00;102045.56;5104455;28;20400;-84
2024/01/19 10:43:00;;;;;;;24.02;15.07;;;;;;;-0.53;100.00;102047.25;5110399;28;20383;-84
2024/01/19 10:45:28;;;;;;;20.15;14.20;;;;;;;-0.47;100.00;102043.72;5113397;28;20015;-84
2024/01/19 10:47:56;;;;;;;18.45;14.10;;;;;;;-0.44;100.00;102041.97;5105769;28;20031;-83
2024/01/19 10:50:28;;;;;;;17.23;15.25;;;;;;;-0.36;100.00;102045.38;5111266;28;20019;-83
2024/01/19 10:52:56;;;;;;;18.55;14.60;;;;;;;-0.35;100.00;102044.50;5101142;28;20122;-82
2024/01/19 10:55:27;;;;;;;17.25;14.90;;;;;;;-0.31;100.00;102037.56;5099929;28;20058;-83
2024/01/19 10:57:55;;;;;;;23.33;15.50;;;;;;;-0.27;100.00;102041.84;5099169;28;20451;-84
2024/01/19 11:00:21;;;;;;;18.27;14.55;;;;;;;-0.24;100.00;102044.38;5110158;28;20024;-83